Terminal Aerodrome Forecast
Issued by NWS

Home | Current Version | Previous Version | Text Only | Print | Product List | Glossary On
Versions: 1 2 3 4 5 6 7 8 9 10 11 12 13
840
FTUS43 KEAX 070520
TAFSTJ
TAF
KSTJ 070520Z 0706/0806 22011KT P6SM SCT180 WS020/25045KT
     FM071200 27012KT P6SM BKN150
     FM071700 30018G28KT P6SM BKN120
     FM080100 31015KT P6SM OVC080=

USA.gov is the U.S. government's official web portal to all federal, state and local government web resources and services.